Time;durP1;ratioP1;P1;durP2;ratioP2;P2;SDS_P1;SDS_P2;PMS_P1;PMS_P2;Temp;Humidity;BMP_temperature;BMP_pressure;BME280_temperature;BME280_humidity;BME280_pressure;Samples;Min_cycle;Max_cycle;Signal;HPM_P1;HPM_P2
2022/03/12 00:01:47;;;;;;;;;;;;;;;23.15;12.79;98749.72;4979173;28;942;-72
2022/03/12 00:04:13;;;;;;;;;;;;;;;23.29;12.84;98746.59;4976298;28;959;-72
2022/03/12 00:06:39;;;;;;;;;;;;;;;22.84;13.00;98747.06;4976733;28;1017;-72
2022/03/12 00:09:05;;;;;;;;;;;;;;;22.63;13.52;98747.50;4976853;28;1123;-72
2022/03/12 00:11:34;;;;;;;;;;;;;;;22.73;13.14;98752.16;4976617;28;1064;-72
2022/03/12 00:14:00;;;;;;;;;;;;;;;23.19;13.05;98749.66;4976495;28;1013;-72
2022/03/12 00:16:26;;;;;;;;;;;;;;;23.22;13.03;98738.25;4976322;28;938;-72
2022/03/12 00:18:55;;;;;;;;;;;;;;;22.46;13.53;98748.63;4976477;28;986;-72
2022/03/12 00:21:30;;;;;;;;;;;;;;;23.27;12.85;98734.09;4976205;28;999;-72
2022/03/12 00:23:58;;;;;;;;;;;;;;;23.13;12.92;98738.03;4976021;28;1113;-72
2022/03/12 00:26:23;;;;;;;;;;;;;;;23.68;12.40;98736.44;4976236;28;1000;-72
2022/03/12 00:28:50;;;;;;;;;;;;;;;23.14;12.85;98748.13;4956929;29;915;-72
2022/03/12 00:31:15;;;;;;;;;;;;;;;23.11;12.61;98743.34;4956400;29;1033;-72
2022/03/12 00:33:41;;;;;;;;;;;;;;;22.57;13.49;98750.03;4956546;29;1000;-72
2022/03/12 00:36:06;;;;;;;;;;;;;;;22.82;13.16;98738.22;4956469;29;996;-72
2022/03/12 00:38:31;;;;;;;;;;;;;;;23.43;12.89;98741.84;4956851;29;1078;-72
2022/03/12 00:40:57;;;;;;;;;;;;;;;23.03;13.20;98736.22;4960958;28;1914;-72
2022/03/12 00:43:23;;;;;;;;;;;;;;;23.14;13.01;98725.41;4975756;28;1062;-73
2022/03/12 00:45:48;;;;;;;;;;;;;;;23.16;12.79;98728.63;4976028;28;968;-72
2022/03/12 00:48:14;;;;;;;;;;;;;;;23.54;12.82;98719.69;4975812;28;939;-72
2022/03/12 00:50:39;;;;;;;;;;;;;;;23.12;13.01;98710.88;4975728;28;1025;-72
2022/03/12 00:53:04;;;;;;;;;;;;;;;22.83;13.04;98702.91;4975630;28;1014;-72
2022/03/12 00:55:30;;;;;;;;;;;;;;;21.32;13.67;98502.94;4975465;28;1070;-72
2022/03/12 00:57:55;;;;;;;;;;;;;;;23.09;13.07;98700.38;4975849;28;1019;-72
2022/03/12 01:00:21;;;;;;;;;;;;;;;23.26;12.96;98698.38;4975562;28;1993;-72
2022/03/12 01:02:47;;;;;;;;;;;;;;;23.28;12.82;98685.38;4936895;29;1014;-72
2022/03/12 01:05:16;;;;;;;;;;;;;;;23.21;12.63;98687.56;4935596;29;1047;-72
2022/03/12 01:07:42;;;;;;;;;;;;;;;22.81;13.19;98691.22;4898308;29;999;-72
2022/03/12 01:10:08;;;;;;;;;;;;;;;22.95;12.89;98690.16;4899162;29;910;-73
2022/03/12 01:12:34;;;;;;;;;;;;;;;22.98;13.09;98685.63;4880606;29;1057;-72
2022/03/12 01:14:59;;;;;;;;;;;;;;;23.34;12.79;98677.91;4880526;29;1327;-72
2022/03/12 01:17:25;;;;;;;;;;;;;;;22.92;13.02;98679.66;4880517;29;996;-72
2022/03/12 01:19:50;;;;;;;;;;;;;;;23.19;12.73;98682.31;4880283;29;1911;-73
2022/03/12 01:22:19;;;;;;;;;;;;;;;22.80;13.02;98683.94;4880422;29;959;-72
2022/03/12 01:24:45;;;;;;;;;;;;;;;23.19;12.66;98688.00;4880324;29;1014;-72
2022/03/12 01:27:10;;;;;;;;;;;;;;;22.82;12.96;98680.66;4879967;29;990;-73
2022/03/12 01:29:36;;;;;;;;;;;;;;;23.12;12.89;98682.50;4880505;29;1076;-72
2022/03/12 01:32:01;;;;;;;;;;;;;;;23.16;12.58;98683.22;4880325;29;1053;-72
2022/03/12 01:34:27;;;;;;;;;;;;;;;23.08;12.92;98698.78;4880048;29;1208;-72
2022/03/12 01:36:52;;;;;;;;;;;;;;;22.83;13.05;98702.13;4880135;29;975;-72
2022/03/12 01:39:17;;;;;;;;;;;;;;;23.35;12.45;98696.56;4915557;28;1989;-72
2022/03/12 01:41:43;;;;;;;;;;;;;;;22.72;13.21;98705.19;4975142;28;1270;-72
2022/03/12 01:44:12;;;;;;;;;;;;;;;23.05;13.07;98705.34;4976884;28;1016;-72
2022/03/12 01:46:40;;;;;;;;;;;;;;;23.13;12.81;98706.78;4975108;28;979;-72
2022/03/12 01:49:06;;;;;;;;;;;;;;;22.84;13.02;98706.56;4974963;28;885;-72
2022/03/12 01:51:33;;;;;;;;;;;;;;;23.21;12.92;98701.75;4975149;28;1065;-72
2022/03/12 01:53:59;;;;;;;;;;;;;;;23.07;12.72;98709.34;4975090;28;1020;-72
2022/03/12 01:56:26;;;;;;;;;;;;;;;23.43;12.42;98693.56;4975108;28;1054;-73
2022/03/12 01:58:51;;;;;;;;;;;;;;;23.16;12.86;98705.94;4974674;28;900;-72
2022/03/12 02:01:18;;;;;;;;;;;;;;;23.35;12.57;98707.13;4974778;28;1988;-72
2022/03/12 02:03:44;;;;;;;;;;;;;;;23.15;12.46;98709.97;4974902;28;965;-72
2022/03/12 02:06:10;;;;;;;;;;;;;;;23.18;12.65;98706.28;4975009;28;1089;-72
2022/03/12 02:08:36;;;;;;;;;;;;;;;23.31;12.73;98707.22;4974991;28;1003;-72
2022/03/12 02:11:02;;;;;;;;;;;;;;;22.86;12.89;98702.06;4974808;28;1111;-72
2022/03/12 02:13:29;;;;;;;;;;;;;;;23.22;12.76;98707.00;4974968;28;979;-72
2022/03/12 02:16:07;;;;;;;;;;;;;;;23.23;12.76;98705.75;4974488;28;1027;-72
2022/03/12 02:18:34;;;;;;;;;;;;;;;23.26;12.54;98704.06;4975926;28;943;-73
2022/03/12 02:20:59;;;;;;;;;;;;;;;23.27;12.30;98715.00;4978705;28;1985;-72
2022/03/12 02:23:26;;;;;;;;;;;;;;;23.59;12.41;98699.28;4978104;28;1030;-72
2022/03/12 02:25:51;;;;;;;;;;;;;;;23.38;12.33;98711.94;4978205;28;1143;-72
2022/03/12 02:28:17;;;;;;;;;;;;;;;23.24;12.58;98701.69;4978309;28;963;-72
2022/03/12 02:30:48;;;;;;;;;;;;;;;23.13;12.62;98713.28;4958190;29;1041;-72
2022/03/12 02:33:23;;;;;;;;;;;;;;;22.81;12.73;98713.91;4976425;28;955;-72
2022/03/12 02:35:48;;;;;;;;;;;;;;;22.88;12.69;98710.16;4978356;28;998;-72
2022/03/12 02:38:13;;;;;;;;;;;;;;;23.09;12.59;98717.41;4978259;28;1225;-72
2022/03/12 02:40:41;;;;;;;;;;;;;;;23.27;12.72;98722.72;4978319;28;1988;-73
2022/03/12 02:43:07;;;;;;;;;;;;;;;23.05;12.81;98711.84;4977844;28;1126;-72
2022/03/12 02:45:33;;;;;;;;;;;;;;;23.39;12.32;98705.00;4961825;28;1478;-72
2022/03/12 02:47:58;;;;;;;;;;;;;;;23.36;12.26;98720.91;4977904;28;1014;-72
2022/03/12 02:50:24;;;;;;;;;;;;;;;23.21;12.50;98713.09;4978000;28;1035;-72
2022/03/12 02:52:52;;;;;;;;;;;;;;;23.53;12.47;98715.25;4977815;28;1085;-72
2022/03/12 02:55:19;;;;;;;;;;;;;;;23.17;12.57;98718.88;4977818;28;970;-72
2022/03/12 02:57:45;;;;;;;;;;;;;;;23.08;12.74;98715.81;4977562;28;1070;-72
2022/03/12 03:00:11;;;;;;;;;;;;;;;23.53;12.24;98712.41;4958033;29;1931;-72
2022/03/12 03:02:47;;;;;;;;;;;;;;;23.51;12.17;98714.88;4903272;29;1029;-72
2022/03/12 03:05:13;;;;;;;;;;;;;;;22.88;12.83;98713.00;4919624;29;1911;-72
2022/03/12 03:07:43;;;;;;;;;;;;;;;22.69;13.15;98714.56;4901014;29;1446;-72
2022/03/12 03:10:20;;;;;;;;;;;;;;;22.94;12.71;98724.63;4901077;29;1045;-72
2022/03/12 03:12:45;;;;;;;;;;;;;;;23.20;12.67;98728.53;4900910;29;977;-72
2022/03/12 03:15:14;;;;;;;;;;;;;;;23.32;12.43;98720.16;4900916;29;1047;-72
2022/03/12 03:17:40;;;;;;;;;;;;;;;23.62;12.28;98715.41;4900888;29;1097;-72
2022/03/12 03:20:05;;;;;;;;;;;;;;;23.56;12.34;98722.88;4900935;29;1996;-72
2022/03/12 03:22:31;;;;;;;;;;;;;;;23.27;12.54;98723.53;4900938;29;1011;-72
2022/03/12 03:24:56;;;;;;;;;;;;;;;23.52;12.45;98714.44;4900700;29;966;-73
2022/03/12 03:27:22;;;;;;;;;;;;;;;23.54;12.55;98714.00;4900798;29;926;-73
2022/03/12 03:29:47;;;;;;;;;;;;;;;23.34;12.27;98714.84;4900123;29;1016;-72
2022/03/12 03:32:13;;;;;;;;;;;;;;;23.59;12.33;98719.16;4918230;29;1059;-72
2022/03/12 03:34:39;;;;;;;;;;;;;;;22.94;12.56;98716.13;4919420;29;978;-72
2022/03/12 03:37:05;;;;;;;;;;;;;;;23.60;12.26;98718.69;4919739;29;1018;-73
2022/03/12 03:39:31;;;;;;;;;;;;;;;23.28;12.39;98727.97;4947213;28;1914;-72
2022/03/12 03:41:56;;;;;;;;;;;;;;;23.49;12.37;98728.72;4978961;28;1082;-72
2022/03/12 03:44:22;;;;;;;;;;;;;;;23.32;12.58;98737.22;4979466;28;1040;-72
2022/03/12 03:46:48;;;;;;;;;;;;;;;23.03;12.60;98731.31;4979024;28;989;-72
2022/03/12 03:49:13;;;;;;;;;;;;;;;23.48;12.44;98727.13;4979160;28;938;-72
2022/03/12 03:51:43;;;;;;;;;;;;;;;22.79;12.97;98729.75;4978853;28;927;-72
2022/03/12 03:54:09;;;;;;;;;;;;;;;23.14;12.58;98728.25;4978854;28;948;-72
2022/03/12 03:56:35;;;;;;;;;;;;;;;23.29;12.63;98738.06;4978441;28;930;-72
2022/03/12 03:59:01;;;;;;;;;;;;;;;23.03;12.75;98733.38;4978652;28;1014;-72
2022/03/12 04:01:26;;;;;;;;;;;;;;;23.18;12.61;98731.81;4978860;28;1903;-72
2022/03/12 04:03:52;;;;;;;;;;;;;;;22.92;12.68;98729.94;4978780;28;948;-72
2022/03/12 04:06:18;;;;;;;;;;;;;;;22.73;12.87;98737.97;4978477;28;960;-72
2022/03/12 04:08:45;;;;;;;;;;;;;;;23.07;12.73;98731.25;4978582;28;950;-72
2022/03/12 04:11:14;;;;;;;;;;;;;;;22.81;13.03;98725.25;4978198;28;975;-72
2022/03/12 04:13:39;;;;;;;;;;;;;;;22.77;12.99;98733.03;4978968;28;950;-72
2022/03/12 04:16:06;;;;;;;;;;;;;;;22.81;12.86;98730.94;4978829;28;1041;-72
2022/03/12 04:18:32;;;;;;;;;;;;;;;23.01;12.55;98721.66;4978652;28;912;-72
2022/03/12 04:20:57;;;;;;;;;;;;;;;23.09;12.41;98723.91;4978331;28;1963;-73
2022/03/12 04:23:25;;;;;;;;;;;;;;;22.97;12.83;98726.59;4978290;28;922;-72
2022/03/12 04:25:55;;;;;;;;;;;;;;;23.16;12.48;98722.97;4977942;28;1065;-72
2022/03/12 04:28:22;;;;;;;;;;;;;;;23.50;12.25;98721.78;4977890;28;1135;-72
2022/03/12 04:30:48;;;;;;;;;;;;;;;22.96;12.84;98730.69;4975965;28;915;-72
2022/03/12 04:33:14;;;;;;;;;;;;;;;22.71;12.74;98720.59;4975972;28;998;-73
2022/03/12 04:35:41;;;;;;;;;;;;;;;22.59;12.81;98729.75;4956291;29;1001;-72
2022/03/12 04:38:09;;;;;;;;;;;;;;;22.54;12.92;98738.78;4940349;29;992;-72
2022/03/12 04:40:34;;;;;;;;;;;;;;;22.62;12.87;98745.91;4936782;29;1911;-72
2022/03/12 04:43:00;;;;;;;;;;;;;;;22.50;13.23;98743.72;4937384;29;1269;-72
2022/03/12 04:45:26;;;;;;;;;;;;;;;23.07;12.67;98742.63;4936870;29;1003;-72
2022/03/12 04:47:51;;;;;;;;;;;;;;;22.79;12.91;98739.06;4937299;29;1070;-72
2022/03/12 04:50:17;;;;;;;;;;;;;;;22.95;12.98;98746.09;4936875;29;1073;-72
2022/03/12 04:52:43;;;;;;;;;;;;;;;23.24;12.29;98752.78;4936936;29;1027;-72
2022/03/12 04:55:11;;;;;;;;;;;;;;;23.13;12.60;98741.66;4936948;29;1032;-73
2022/03/12 04:57:36;;;;;;;;;;;;;;;22.82;12.76;98743.88;4936965;29;1031;-72
2022/03/12 05:00:03;;;;;;;;;;;;;;;23.25;12.47;98743.03;4936915;29;2000;-72
2022/03/12 05:02:29;;;;;;;;;;;;;;;23.50;12.29;98736.78;4936553;29;961;-72
2022/03/12 05:04:54;;;;;;;;;;;;;;;23.30;12.39;98739.66;4936914;29;1017;-73
2022/03/12 05:07:20;;;;;;;;;;;;;;;22.95;12.61;98737.56;4954135;28;1032;-72
2022/03/12 05:09:46;;;;;;;;;;;;;;;22.78;13.09;98742.34;4975452;28;1012;-72
2022/03/12 05:12:11;;;;;;;;;;;;;;;22.95;12.76;98740.41;4954902;28;981;-72
2022/03/12 05:14:37;;;;;;;;;;;;;;;23.28;12.15;98752.72;4975487;28;1053;-72
2022/03/12 05:17:06;;;;;;;;;;;;;;;22.93;12.74;98754.25;4977213;28;966;-72
2022/03/12 05:19:35;;;;;;;;;;;;;;;22.54;13.00;98750.13;4977189;28;1899;-73
2022/03/12 05:22:01;;;;;;;;;;;;;;;22.71;13.04;98760.31;4977301;28;1046;-72
2022/03/12 05:24:26;;;;;;;;;;;;;;;22.91;12.75;98762.41;4977413;28;1010;-73
2022/03/12 05:26:51;;;;;;;;;;;;;;;22.97;12.96;98760.66;4977165;28;942;-73
2022/03/12 05:29:18;;;;;;;;;;;;;;;23.23;12.65;98761.75;4977198;28;990;-73
2022/03/12 05:31:43;;;;;;;;;;;;;;;22.65;13.04;98756.38;4974743;28;982;-73
2022/03/12 05:34:09;;;;;;;;;;;;;;;23.23;12.63;98758.91;4974868;28;1125;-73
2022/03/12 05:36:36;;;;;;;;;;;;;;;23.15;12.50;98755.41;4975083;28;1012;-73
2022/03/12 05:39:01;;;;;;;;;;;;;;;22.86;12.97;98761.66;4974845;28;1042;-73
2022/03/12 05:41:29;;;;;;;;;;;;;;;23.06;12.80;98758.84;4974586;28;1915;-73
2022/03/12 05:43:55;;;;;;;;;;;;;;;23.30;12.34;98759.53;4974625;28;966;-73
2022/03/12 05:46:21;;;;;;;;;;;;;;;23.50;12.12;98759.50;4974691;28;1000;-73
2022/03/12 05:48:48;;;;;;;;;;;;;;;23.44;12.38;98760.47;4974790;28;986;-73
2022/03/12 05:51:14;;;;;;;;;;;;;;;22.88;12.85;98770.53;4974670;28;999;-72
2022/03/12 05:53:39;;;;;;;;;;;;;;;22.87;12.94;98766.09;4975800;28;1047;-71
2022/03/12 05:56:04;;;;;;;;;;;;;;;23.42;12.42;98771.50;4978714;28;1114;-71
2022/03/12 05:58:35;;;;;;;;;;;;;;;23.48;12.50;98772.56;4978421;28;971;-71
2022/03/12 06:01:01;;;;;;;;;;;;;;;22.92;12.85;98775.34;4978616;28;1975;-72
2022/03/12 06:03:26;;;;;;;;;;;;;;;22.61;13.29;98772.66;4980223;28;933;-71
2022/03/12 06:05:56;;;;;;;;;;;;;;;23.70;12.19;98772.91;4980491;28;915;-71
2022/03/12 06:08:22;;;;;;;;;;;;;;;23.16;12.78;98773.22;4980922;28;1079;-71
2022/03/12 06:10:51;;;;;;;;;;;;;;;23.12;12.62;98776.16;4980642;28;946;-71
2022/03/12 06:13:16;;;;;;;;;;;;;;;22.72;13.21;98775.31;4980695;28;1099;-71
2022/03/12 06:15:42;;;;;;;;;;;;;;;22.76;13.13;98774.00;4980823;28;949;-71
2022/03/12 06:18:11;;;;;;;;;;;;;;;22.81;12.96;98782.00;4980829;28;1004;-72
2022/03/12 06:20:37;;;;;;;;;;;;;;;22.94;12.94;98772.88;4980602;28;1980;-71
2022/03/12 06:23:03;;;;;;;;;;;;;;;22.72;13.06;98773.25;4980767;28;943;-72
2022/03/12 06:25:29;;;;;;;;;;;;;;;22.82;12.91;98777.13;4978047;28;924;-71
2022/03/12 06:27:54;;;;;;;;;;;;;;;22.59;13.43;98769.47;4977839;28;1110;-72
2022/03/12 06:30:21;;;;;;;;;;;;;;;23.18;12.71;98760.22;4978192;28;1072;-71
2022/03/12 06:32:47;;;;;;;;;;;;;;;23.37;12.42;98762.25;4978377;28;1070;-71
2022/03/12 06:35:13;;;;;;;;;;;;;;;23.18;12.74;98753.75;4978263;28;965;-71
2022/03/12 06:37:39;;;;;;;;;;;;;;;23.13;12.88;98752.22;4978374;28;1006;-71
2022/03/12 06:40:08;;;;;;;;;;;;;;;23.21;12.51;98748.00;4958436;29;1906;-71
2022/03/12 06:42:34;;;;;;;;;;;;;;;22.64;13.08;98757.63;4938778;29;1070;-71
2022/03/12 06:44:59;;;;;;;;;;;;;;;22.52;13.26;98761.06;4939295;29;1043;-71
2022/03/12 06:47:30;;;;;;;;;;;;;;;23.17;12.83;98747.28;4939320;29;1049;-71
2022/03/12 06:49:56;;;;;;;;;;;;;;;23.19;12.81;98755.34;4941692;29;1672;-72
2022/03/12 06:52:22;;;;;;;;;;;;;;;22.75;12.84;98754.59;4917305;29;1457;-71
2022/03/12 06:54:48;;;;;;;;;;;;;;;22.86;12.76;98744.63;4919735;29;1597;-71
2022/03/12 06:57:13;;;;;;;;;;;;;;;22.67;13.19;98759.59;4919736;29;1533;-71
2022/03/12 06:59:39;;;;;;;;;;;;;;;22.70;12.98;98758.72;4903578;29;1972;-72
2022/03/12 07:02:07;;;;;;;;;;;;;;;22.85;12.80;98743.03;4920955;29;1592;-72
2022/03/12 07:04:32;;;;;;;;;;;;;;;23.01;12.88;98744.38;4940760;28;1561;-72
2022/03/12 07:06:58;;;;;;;;;;;;;;;22.92;12.75;98759.13;4948012;29;1608;-72
2022/03/12 07:09:23;;;;;;;;;;;;;;;22.76;13.11;98773.19;4948305;29;1664;-71
2022/03/12 07:11:50;;;;;;;;;;;;;;;22.76;13.00;98762.66;4946960;29;1678;-72
2022/03/12 07:14:16;;;;;;;;;;;;;;;22.65;12.99;98779.09;4949006;29;1603;-72
2022/03/12 07:16:42;;;;;;;;;;;;;;;22.93;13.01;98771.28;4948123;29;1562;-72
2022/03/12 07:19:07;;;;;;;;;;;;;;;22.95;12.89;98775.31;4950257;28;1762;-72
2022/03/12 07:21:34;;;;;;;;;;;;;;;23.27;12.85;98774.63;4968173;28;1915;-72
2022/03/12 07:23:59;;;;;;;;;;;;;;;22.67;13.27;98781.47;4991515;28;1702;-72
2022/03/12 07:26:25;;;;;;;;;;;;;;;22.77;13.06;98784.09;4998448;28;1620;-72
2022/03/12 07:28:50;;;;;;;;;;;;;;;22.81;13.12;98784.84;4997381;28;1739;-72
2022/03/12 07:31:16;;;;;;;;;;;;;;;23.21;12.72;98782.06;4998604;28;1553;-72
2022/03/12 07:33:42;;;;;;;;;;;;;;;23.51;12.49;98794.41;4998316;28;2322;-72
2022/03/12 07:36:07;;;;;;;;;;;;;;;23.33;12.53;98795.59;4998365;28;1576;-72
2022/03/12 07:38:33;;;;;;;;;;;;;;;23.42;12.56;98791.38;4997993;28;1603;-72
2022/03/12 07:40:58;;;;;;;;;;;;;;;23.13;12.90;98809.00;4998368;28;1906;-72
2022/03/12 07:43:24;;;;;;;;;;;;;;;22.96;13.02;98802.44;4979774;28;1695;-72
2022/03/12 07:45:49;;;;;;;;;;;;;;;23.24;12.86;98809.56;4998219;28;1651;-72
2022/03/12 07:48:15;;;;;;;;;;;;;;;22.24;13.47;98811.38;4998253;28;1550;-72
2022/03/12 07:50:40;;;;;;;;;;;;;;;22.76;13.18;98808.06;4998191;28;1594;-71
2022/03/12 07:53:06;;;;;;;;;;;;;;;23.06;13.12;98809.94;4998574;28;1595;-72
2022/03/12 07:55:32;;;;;;;;;;;;;;;22.83;12.92;98807.91;4998503;28;1642;-72
2022/03/12 07:57:57;;;;;;;;;;;;;;;23.00;13.04;98822.22;4998033;28;1427;-72
2022/03/12 08:00:28;;;;;;;;;;;;;;;22.83;13.23;98819.25;4997735;28;1902;-72
2022/03/12 08:02:54;;;;;;;;;;;;;;;22.61;13.07;98812.38;4997708;28;1496;-72
2022/03/12 08:05:23;;;;;;;;;;;;;;;22.57;13.39;98809.59;4998004;28;1513;-72
2022/03/12 08:07:50;;;;;;;;;;;;;;;23.35;12.76;98815.81;4997977;28;1461;-72
2022/03/12 08:10:15;;;;;;;;;;;;;;;22.85;12.93;98808.28;4995139;28;1453;-72
2022/03/12 08:12:41;;;;;;;;;;;;;;;23.14;12.68;98813.44;4997461;28;1543;-72
2022/03/12 08:15:12;;;;;;;;;;;;;;;23.58;12.49;98805.63;4997575;28;1588;-72
2022/03/12 08:17:38;;;;;;;;;;;;;;;23.23;12.91;98810.00;4994984;28;1380;-72
2022/03/12 08:20:07;;;;;;;;;;;;;;;22.94;13.26;98806.94;4997478;28;1966;-72
2022/03/12 08:22:34;;;;;;;;;;;;;;;23.33;12.97;98811.84;4997389;28;1564;-72
2022/03/12 08:25:00;;;;;;;;;;;;;;;23.02;13.13;98814.88;4998010;28;1455;-72
2022/03/12 08:27:28;;;;;;;;;;;;;;;23.12;12.97;98816.72;4997473;28;1405;-72
2022/03/12 08:29:54;;;;;;;;;;;;;;;23.20;12.77;98819.41;4997521;28;1560;-71
2022/03/12 08:32:19;;;;;;;;;;;;;;;23.07;12.74;98834.25;4997219;28;1461;-71
2022/03/12 08:34:45;;;;;;;;;;;;;;;22.93;13.00;98837.34;4997226;28;1448;-71
2022/03/12 08:37:11;;;;;;;;;;;;;;;23.13;12.94;98826.81;4997409;28;1533;-71
2022/03/12 08:39:37;;;;;;;;;;;;;;;22.42;13.24;98835.78;4967038;28;1895;-72
2022/03/12 08:42:02;;;;;;;;;;;;;;;23.08;12.83;98829.38;4933474;28;1547;-72
2022/03/12 08:44:28;;;;;;;;;;;;;;;22.69;13.24;98825.22;4903897;29;1562;-72
2022/03/12 08:46:53;;;;;;;;;;;;;;;22.97;13.03;98823.09;4936891;29;1516;-72
2022/03/12 08:49:19;;;;;;;;;;;;;;;23.20;12.77;98825.88;4936057;29;1606;-72
2022/03/12 08:51:46;;;;;;;;;;;;;;;23.15;13.16;98817.84;4936597;29;1531;-72
2022/03/12 08:54:11;;;;;;;;;;;;;;;23.10;12.73;98826.88;4936887;29;983;-71
2022/03/12 08:56:37;;;;;;;;;;;;;;;23.03;13.20;98827.03;4937205;29;1079;-72
2022/03/12 08:59:03;;;;;;;;;;;;;;;22.92;13.27;98824.41;4936793;29;976;-72
2022/03/12 09:01:28;;;;;;;;;;;;;;;23.39;12.67;98822.22;4936140;29;1918;-72
2022/03/12 09:03:54;;;;;;;;;;;;;;;23.36;12.72;98823.13;4935728;29;1533;-72
2022/03/12 09:06:19;;;;;;;;;;;;;;;23.70;12.46;98830.53;4935831;29;1576;-72
2022/03/12 09:08:46;;;;;;;;;;;;;;;23.38;12.57;98826.31;4935680;29;1496;-72
2022/03/12 09:11:13;;;;;;;;;;;;;;;22.94;12.98;98824.75;4964039;28;1540;-72
2022/03/12 09:13:38;;;;;;;;;;;;;;;22.96;12.98;98821.50;4954439;29;1512;-72
2022/03/12 09:16:05;;;;;;;;;;;;;;;22.70;13.38;98821.13;4956794;28;1378;-72
2022/03/12 09:18:31;;;;;;;;;;;;;;;23.18;13.13;98825.53;4983363;28;1851;-72
2022/03/12 09:20:56;;;;;;;;;;;;;;;23.27;13.09;98825.75;4985286;28;1995;-72
2022/03/12 09:23:22;;;;;;;;;;;;;;;23.04;12.98;98828.63;4984098;28;1538;-72
2022/03/12 09:25:47;;;;;;;;;;;;;;;22.88;13.41;98815.16;4983807;28;1503;-72
2022/03/12 09:28:13;;;;;;;;;;;;;;;22.84;13.00;98826.53;4945879;28;1676;-72
2022/03/12 09:30:39;;;;;;;;;;;;;;;23.47;12.73;98822.91;4945307;29;1563;-72
2022/03/12 09:33:04;;;;;;;;;;;;;;;22.90;13.35;98828.88;4945766;29;1588;-72
2022/03/12 09:35:30;;;;;;;;;;;;;;;23.23;12.93;98822.16;4947166;29;1624;-72
2022/03/12 09:37:55;;;;;;;;;;;;;;;23.20;13.12;98834.38;4947446;29;1390;-72
2022/03/12 09:40:22;;;;;;;;;;;;;;;22.95;13.30;98831.22;4953502;29;1910;-72
2022/03/12 09:42:47;;;;;;;;;;;;;;;23.30;13.10;98850.41;4946201;29;1462;-72
2022/03/12 09:45:13;;;;;;;;;;;;;;;23.13;12.92;98848.72;4961274;28;1598;-72
2022/03/12 09:47:39;;;;;;;;;;;;;;;23.06;13.04;98844.00;4965937;28;1417;-72
2022/03/12 09:50:06;;;;;;;;;;;;;;;22.85;13.12;98839.50;4964137;28;1558;-72
2022/03/12 09:52:32;;;;;;;;;;;;;;;22.86;13.31;98843.94;4972103;28;1582;-72
2022/03/12 09:54:57;;;;;;;;;;;;;;;23.27;13.12;98854.13;4974598;28;1137;-72
2022/03/12 09:57:23;;;;;;;;;;;;;;;23.70;12.52;98853.28;4990391;28;1392;-72
2022/03/12 09:59:48;;;;;;;;;;;;;;;23.14;13.16;98845.44;4971528;28;1958;-72
2022/03/12 10:02:14;;;;;;;;;;;;;;;22.68;13.60;98851.94;4974430;28;1004;-72
2022/03/12 10:04:39;;;;;;;;;;;;;;;23.11;13.27;98857.69;4974716;28;974;-71
2022/03/12 10:07:06;;;;;;;;;;;;;;;23.23;13.06;98859.09;4926465;28;1031;-72
2022/03/12 10:09:32;;;;;;;;;;;;;;;23.36;12.80;98862.88;4974586;28;1041;-72
2022/03/12 10:11:58;;;;;;;;;;;;;;;23.37;13.00;98858.81;4974580;28;964;-72
2022/03/12 10:14:24;;;;;;;;;;;;;;;23.04;13.18;98851.34;4974638;28;1054;-72
2022/03/12 10:16:50;;;;;;;;;;;;;;;22.81;13.49;98855.78;5009872;28;2099;-72
2022/03/12 10:19:15;;;;;;;;;;;;;;;23.17;13.26;98860.84;5013658;28;1063;-72
2022/03/12 10:21:45;;;;;;;;;;;;;;;23.10;13.18;98856.09;5013511;28;1981;-72
2022/03/12 10:24:11;;;;;;;;;;;;;;;22.59;13.41;98865.91;5013269;28;1040;-72
2022/03/12 10:26:37;;;;;;;;;;;;;;;22.63;13.51;98869.47;4979868;28;1573;-72
2022/03/12 10:29:03;;;;;;;;;;;;;;;23.09;12.99;98865.03;4982626;28;1324;-72
2022/03/12 10:31:28;;;;;;;;;;;;;;;23.18;13.04;98868.09;4983484;28;1482;-72
2022/03/12 10:34:33;;;;;;;;;;;;;;;23.09;13.25;98862.19;4991905;28;1281;-72
2022/03/12 10:36:59;;;;;;;;;;;;;;;23.45;12.90;98858.66;4944679;29;1643;-72
2022/03/12 10:39:31;;;;;;;;;;;;;;;23.55;12.90;98863.31;4946721;29;1473;-72
2022/03/12 10:42:04;;;;;;;;;;;;;;;23.50;12.86;98867.47;4951281;29;1465;-72
2022/03/12 10:44:34;;;;;;;;;;;;;;;23.22;12.87;98865.19;4958671;29;1026;-72
2022/03/12 10:46:59;;;;;;;;;;;;;;;23.79;12.72;98864.84;4958516;29;922;-71
2022/03/12 10:49:25;;;;;;;;;;;;;;;23.29;12.84;98854.50;4958515;29;926;-72
2022/03/12 10:51:50;;;;;;;;;;;;;;;23.47;12.80;98850.50;4958511;29;1045;-72
2022/03/12 10:54:15;;;;;;;;;;;;;;;23.52;12.72;98855.66;4955630;29;1140;-72
2022/03/12 10:56:43;;;;;;;;;;;;;;;23.35;12.95;98858.41;4958308;29;974;-72
2022/03/12 10:59:12;;;;;;;;;;;;;;;23.16;12.93;98850.72;4958475;29;1002;-72
2022/03/12 11:01:44;;;;;;;;;;;;;;;23.08;13.22;98852.06;4958046;29;1894;-72
2022/03/12 11:04:23;;;;;;;;;;;;;;;23.14;12.99;98851.13;4931473;29;1153;-72
2022/03/12 11:06:49;;;;;;;;;;;;;;;23.53;12.67;98843.06;4935284;28;1652;-72
2022/03/12 11:09:18;;;;;;;;;;;;;;;23.43;12.96;98844.09;4973828;28;1579;-72
2022/03/12 11:11:44;;;;;;;;;;;;;;;23.03;12.96;98838.38;4971314;28;1591;-71
2022/03/12 11:14:11;;;;;;;;;;;;;;;23.54;12.91;98841.81;4977404;28;1092;-72
2022/03/12 11:16:37;;;;;;;;;;;;;;;23.36;12.69;98825.13;4954431;29;1099;-72
2022/03/12 11:19:07;;;;;;;;;;;;;;;22.90;13.38;98828.88;4939087;29;1034;-72
2022/03/12 11:21:37;;;;;;;;;;;;;;;22.97;13.21;98812.53;4938720;29;1977;-71
2022/03/12 11:24:22;;;;;;;;;;;;;;;22.79;13.51;98824.19;4923265;29;1264;-71
2022/03/12 11:26:48;;;;;;;;;;;;;;;22.23;13.83;98820.34;4919542;29;1090;-72
2022/03/12 11:29:13;;;;;;;;;;;;;;;22.78;13.30;98822.59;4919253;29;1065;-72
2022/03/12 11:31:39;;;;;;;;;;;;;;;23.19;12.91;98817.78;4919555;29;1018;-72
2022/03/12 11:34:14;;;;;;;;;;;;;;;22.66;13.22;98806.22;4912761;29;1660;-72
2022/03/12 11:36:43;;;;;;;;;;;;;;;22.84;13.25;98815.19;4905703;29;1525;-72
2022/03/12 11:39:08;;;;;;;;;;;;;;;23.22;13.31;98817.75;4901464;29;995;-72
2022/03/12 11:41:34;;;;;;;;;;;;;;;23.30;13.15;98821.22;4919240;29;1910;-72
2022/03/12 11:43:59;;;;;;;;;;;;;;;22.85;13.35;98816.00;4919471;29;1000;-72
2022/03/12 11:46:24;;;;;;;;;;;;;;;23.04;13.17;98823.75;4919620;29;1023;-72
2022/03/12 11:48:50;;;;;;;;;;;;;;;23.13;13.07;98826.03;4957355;29;1005;-71
2022/03/12 11:51:16;;;;;;;;;;;;;;;22.78;13.39;98816.91;4956712;28;1086;-72
2022/03/12 11:53:42;;;;;;;;;;;;;;;23.25;13.21;98816.84;4957481;29;979;-72
2022/03/12 11:56:07;;;;;;;;;;;;;;;23.07;13.12;98816.41;4941054;29;1014;-72
2022/03/12 11:58:34;;;;;;;;;;;;;;;22.57;13.38;98817.31;4955787;28;1535;-72
2022/03/12 12:00:59;;;;;;;;;;;;;;;23.10;13.04;98816.34;4986804;28;2005;-72
2022/03/12 12:03:24;;;;;;;;;;;;;;;22.99;13.08;98809.25;4988630;28;1537;-72
2022/03/12 12:05:50;;;;;;;;;;;;;;;23.01;13.03;98815.31;4988309;28;1473;-72
2022/03/12 12:08:16;;;;;;;;;;;;;;;22.91;13.37;98808.63;4986876;28;1462;-72
2022/03/12 12:10:42;;;;;;;;;;;;;;;22.99;13.12;98803.59;4988506;28;1506;-72
2022/03/12 12:13:12;;;;;;;;;;;;;;;23.02;13.26;98808.41;4988209;28;1289;-72
2022/03/12 12:15:41;;;;;;;;;;;;;;;22.61;13.44;98801.03;4997714;28;1316;-72
2022/03/12 12:18:08;;;;;;;;;;;;;;;22.69;13.56;98794.00;4997520;28;1679;-72
2022/03/12 12:20:33;;;;;;;;;;;;;;;22.88;13.33;98809.47;4986649;28;1914;-72
2022/03/12 12:22:59;;;;;;;;;;;;;;;22.87;13.21;98802.97;4988950;28;2046;-72
2022/03/12 12:25:25;;;;;;;;;;;;;;;23.18;12.96;98804.84;4987368;28;1525;-73
2022/03/12 12:27:52;;;;;;;;;;;;;;;23.23;12.95;98807.97;4987082;28;1503;-73
2022/03/12 12:30:27;;;;;;;;;;;;;;;23.30;12.78;98807.81;4986540;28;1467;-72
2022/03/12 12:32:53;;;;;;;;;;;;;;;23.40;12.92;98809.63;4986839;28;1450;-72
2022/03/12 12:35:18;;;;;;;;;;;;;;;23.32;12.85;98811.03;4988666;28;1571;-72
2022/03/12 12:37:51;;;;;;;;;;;;;;;22.85;13.50;98813.97;4965084;28;1541;-72
2022/03/12 12:40:17;;;;;;;;;;;;;;;23.14;12.93;98810.59;4964277;28;1969;-72
2022/03/12 12:42:42;;;;;;;;;;;;;;;23.38;13.02;98805.63;4966034;28;1673;-72
2022/03/12 12:45:14;;;;;;;;;;;;;;;22.96;13.29;98793.91;4968449;28;2068;-72
2022/03/12 12:47:40;;;;;;;;;;;;;;;22.80;13.44;98810.84;4966592;28;1703;-72
2022/03/12 12:50:06;;;;;;;;;;;;;;;23.05;12.96;98813.19;4964225;28;1654;-73
2022/03/12 12:52:34;;;;;;;;;;;;;;;22.49;13.61;98807.34;4975189;28;991;-73
2022/03/12 12:55:03;;;;;;;;;;;;;;;23.50;12.96;98815.53;4975794;28;950;-72
2022/03/12 12:57:40;;;;;;;;;;;;;;;23.32;13.00;98804.56;4967024;28;1613;-72